sensor_id;sensor_type;location;lat;lon;timestamp;P1;durP1;ratioP1;P2;durP2;ratioP2
38937;SDS011;24727;51.974;20.868;2023-08-30T00:00:47;25.65;;;20.90;;
38937;SDS011;24727;51.974;20.868;2023-08-30T00:03:13;23.67;;;20.75;;
38937;SDS011;24727;51.974;20.868;2023-08-30T00:05:39;24.00;;;20.20;;
38937;SDS011;24727;51.974;20.868;2023-08-30T00:08:06;25.88;;;20.90;;
38937;SDS011;24727;51.974;20.868;2023-08-30T00:10:32;26.42;;;21.83;;
38937;SDS011;24727;51.974;20.868;2023-08-30T00:12:58;27.95;;;23.13;;
38937;SDS011;24727;51.974;20.868;2023-08-30T00:15:25;30.58;;;23.77;;
38937;SDS011;24727;51.974;20.868;2023-08-30T00:17:51;35.33;;;25.23;;
38937;SDS011;24727;51.974;20.868;2023-08-30T00:20:17;36.88;;;26.52;;
38937;SDS011;24727;51.974;20.868;2023-08-30T00:22:44;37.88;;;27.70;;
38937;SDS011;24727;51.974;20.868;2023-08-30T00:25:09;36.85;;;27.83;;
38937;SDS011;24727;51.974;20.868;2023-08-30T00:27:35;44.67;;;29.02;;
38937;SDS011;24727;51.974;20.868;2023-08-30T00:30:02;47.70;;;29.88;;
38937;SDS011;24727;51.974;20.868;2023-08-30T00:32:29;44.20;;;29.70;;
38937;SDS011;24727;51.974;20.868;2023-08-30T00:34:55;49.13;;;32.13;;
38937;SDS011;24727;51.974;20.868;2023-08-30T00:37:21;49.88;;;31.63;;
38937;SDS011;24727;51.974;20.868;2023-08-30T00:39:49;49.80;;;31.58;;
38937;SDS011;24727;51.974;20.868;2023-08-30T00:42:14;52.97;;;32.33;;
38937;SDS011;24727;51.974;20.868;2023-08-30T00:44:41;52.85;;;33.28;;
38937;SDS011;24727;51.974;20.868;2023-08-30T00:47:08;50.33;;;33.17;;
38937;SDS011;24727;51.974;20.868;2023-08-30T00:49:36;57.45;;;33.08;;
38937;SDS011;24727;51.974;20.868;2023-08-30T00:52:06;58.05;;;33.53;;
38937;SDS011;24727;51.974;20.868;2023-08-30T00:54:35;54.25;;;33.05;;
38937;SDS011;24727;51.974;20.868;2023-08-30T00:57:01;60.10;;;33.92;;
38937;SDS011;24727;51.974;20.868;2023-08-30T00:59:29;57.35;;;33.50;;
38937;SDS011;24727;51.974;20.868;2023-08-30T01:01:58;58.22;;;33.45;;
38937;SDS011;24727;51.974;20.868;2023-08-30T01:04:26;60.75;;;34.40;;
38937;SDS011;24727;51.974;20.868;2023-08-30T01:06:53;62.13;;;34.15;;
38937;SDS011;24727;51.974;20.868;2023-08-30T01:09:19;54.40;;;32.47;;
38937;SDS011;24727;51.974;20.868;2023-08-30T01:11:48;58.13;;;34.80;;
38937;SDS011;24727;51.974;20.868;2023-08-30T01:14:40;57.15;;;33.15;;
38937;SDS011;24727;51.974;20.868;2023-08-30T01:17:17;64.15;;;34.53;;
38937;SDS011;24727;51.974;20.868;2023-08-30T01:19:53;59.25;;;33.35;;
38937;SDS011;24727;51.974;20.868;2023-08-30T01:27:40;71.28;;;36.33;;
38937;SDS011;24727;51.974;20.868;2023-08-30T01:30:12;66.25;;;35.17;;
38937;SDS011;24727;51.974;20.868;2023-08-30T01:32:43;65.88;;;35.70;;
38937;SDS011;24727;51.974;20.868;2023-08-30T01:35:15;69.65;;;37.80;;
38937;SDS011;24727;51.974;20.868;2023-08-30T01:37:48;68.88;;;36.78;;
38937;SDS011;24727;51.974;20.868;2023-08-30T01:40:22;65.50;;;35.67;;
38937;SDS011;24727;51.974;20.868;2023-08-30T01:42:50;64.72;;;35.88;;
38937;SDS011;24727;51.974;20.868;2023-08-30T01:45:18;74.07;;;37.38;;
38937;SDS011;24727;51.974;20.868;2023-08-30T01:47:48;59.55;;;32.78;;
38937;SDS011;24727;51.974;20.868;2023-08-30T01:50:15;64.55;;;34.90;;
38937;SDS011;24727;51.974;20.868;2023-08-30T01:52:43;60.63;;;34.72;;
38937;SDS011;24727;51.974;20.868;2023-08-30T01:55:10;60.58;;;31.80;;
38937;SDS011;24727;51.974;20.868;2023-08-30T01:57:39;57.33;;;32.08;;
38937;SDS011;24727;51.974;20.868;2023-08-30T02:00:05;62.95;;;34.03;;
38937;SDS011;24727;51.974;20.868;2023-08-30T02:02:32;56.25;;;31.70;;
38937;SDS011;24727;51.974;20.868;2023-08-30T02:04:58;54.72;;;29.48;;
38937;SDS011;24727;51.974;20.868;2023-08-30T02:10:05;46.92;;;27.73;;
38937;SDS011;24727;51.974;20.868;2023-08-30T02:12:37;43.13;;;25.85;;
38937;SDS011;24727;51.974;20.868;2023-08-30T02:15:14;39.17;;;25.38;;
38937;SDS011;24727;51.974;20.868;2023-08-30T02:17:43;39.13;;;24.80;;
38937;SDS011;24727;51.974;20.868;2023-08-30T02:20:10;36.80;;;23.92;;
38937;SDS011;24727;51.974;20.868;2023-08-30T02:22:37;24.85;;;18.05;;
38937;SDS011;24727;51.974;20.868;2023-08-30T02:25:03;26.80;;;19.42;;
38937;SDS011;24727;51.974;20.868;2023-08-30T02:27:34;26.17;;;19.20;;
38937;SDS011;24727;51.974;20.868;2023-08-30T02:30:00;15.65;;;13.00;;
38937;SDS011;24727;51.974;20.868;2023-08-30T02:32:27;23.40;;;18.85;;
38937;SDS011;24727;51.974;20.868;2023-08-30T02:34:53;23.55;;;18.58;;
38937;SDS011;24727;51.974;20.868;2023-08-30T02:37:22;29.30;;;21.48;;
38937;SDS011;24727;51.974;20.868;2023-08-30T02:39:48;32.03;;;21.90;;
38937;SDS011;24727;51.974;20.868;2023-08-30T02:42:14;28.77;;;20.40;;
38937;SDS011;24727;51.974;20.868;2023-08-30T02:44:41;34.53;;;22.10;;
38937;SDS011;24727;51.974;20.868;2023-08-30T02:47:07;35.10;;;22.25;;
38937;SDS011;24727;51.974;20.868;2023-08-30T02:49:33;38.38;;;24.23;;
38937;SDS011;24727;51.974;20.868;2023-08-30T02:51:59;42.17;;;24.70;;
38937;SDS011;24727;51.974;20.868;2023-08-30T02:54:25;39.83;;;24.42;;
38937;SDS011;24727;51.974;20.868;2023-08-30T02:56:59;40.35;;;23.58;;
38937;SDS011;24727;51.974;20.868;2023-08-30T02:59:27;43.78;;;26.10;;
38937;SDS011;24727;51.974;20.868;2023-08-30T03:01:54;42.83;;;25.40;;
38937;SDS011;24727;51.974;20.868;2023-08-30T03:04:20;40.95;;;24.55;;
38937;SDS011;24727;51.974;20.868;2023-08-30T03:06:54;39.35;;;23.67;;
38937;SDS011;24727;51.974;20.868;2023-08-30T03:09:20;39.72;;;23.33;;
38937;SDS011;24727;51.974;20.868;2023-08-30T03:11:47;28.52;;;19.00;;
38937;SDS011;24727;51.974;20.868;2023-08-30T03:14:13;21.80;;;16.35;;
38937;SDS011;24727;51.974;20.868;2023-08-30T03:16:41;25.80;;;17.55;;
38937;SDS011;24727;51.974;20.868;2023-08-30T03:19:10;20.00;;;15.68;;
38937;SDS011;24727;51.974;20.868;2023-08-30T03:21:37;14.13;;;10.50;;
38937;SDS011;24727;51.974;20.868;2023-08-30T03:24:02;18.58;;;13.80;;
38937;SDS011;24727;51.974;20.868;2023-08-30T03:26:29;20.48;;;15.15;;
38937;SDS011;24727;51.974;20.868;2023-08-30T03:28:55;13.80;;;11.45;;
38937;SDS011;24727;51.974;20.868;2023-08-30T03:31:21;22.15;;;16.35;;
38937;SDS011;24727;51.974;20.868;2023-08-30T03:33:48;13.48;;;11.07;;
38937;SDS011;24727;51.974;20.868;2023-08-30T03:36:15;19.83;;;14.63;;
38937;SDS011;24727;51.974;20.868;2023-08-30T03:38:42;17.77;;;13.80;;
38937;SDS011;24727;51.974;20.868;2023-08-30T03:41:12;14.75;;;12.18;;
38937;SDS011;24727;51.974;20.868;2023-08-30T03:43:39;14.75;;;12.02;;
38937;SDS011;24727;51.974;20.868;2023-08-30T03:46:04;15.75;;;12.82;;
38937;SDS011;24727;51.974;20.868;2023-08-30T03:48:31;14.25;;;11.80;;
38937;SDS011;24727;51.974;20.868;2023-08-30T03:50:57;15.48;;;13.13;;
38937;SDS011;24727;51.974;20.868;2023-08-30T03:53:24;16.35;;;12.98;;
38937;SDS011;24727;51.974;20.868;2023-08-30T03:55:50;16.35;;;13.43;;
38937;SDS011;24727;51.974;20.868;2023-08-30T03:58:18;16.35;;;13.88;;
38937;SDS011;24727;51.974;20.868;2023-08-30T04:00:44;20.83;;;15.45;;
38937;SDS011;24727;51.974;20.868;2023-08-30T04:03:10;17.95;;;13.60;;
38937;SDS011;24727;51.974;20.868;2023-08-30T04:05:38;19.55;;;14.38;;
38937;SDS011;24727;51.974;20.868;2023-08-30T04:08:06;26.08;;;15.80;;
38937;SDS011;24727;51.974;20.868;2023-08-30T04:10:36;30.98;;;18.70;;
38937;SDS011;24727;51.974;20.868;2023-08-30T04:13:03;29.48;;;20.75;;
38937;SDS011;24727;51.974;20.868;2023-08-30T04:15:33;36.03;;;22.55;;
38937;SDS011;24727;51.974;20.868;2023-08-30T04:18:05;40.67;;;24.88;;
38937;SDS011;24727;51.974;20.868;2023-08-30T04:20:32;55.45;;;27.30;;
38937;SDS011;24727;51.974;20.868;2023-08-30T04:22:58;50.38;;;27.52;;
38937;SDS011;24727;51.974;20.868;2023-08-30T04:25:28;51.03;;;27.30;;
38937;SDS011;24727;51.974;20.868;2023-08-30T04:27:54;55.25;;;27.55;;
38937;SDS011;24727;51.974;20.868;2023-08-30T04:30:21;60.53;;;29.85;;
38937;SDS011;24727;51.974;20.868;2023-08-30T04:32:47;68.82;;;29.02;;
38937;SDS011;24727;51.974;20.868;2023-08-30T04:35:13;60.67;;;30.00;;
38937;SDS011;24727;51.974;20.868;2023-08-30T04:37:39;63.33;;;29.98;;
38937;SDS011;24727;51.974;20.868;2023-08-30T04:40:06;63.33;;;31.90;;
38937;SDS011;24727;51.974;20.868;2023-08-30T04:42:36;64.68;;;31.75;;
38937;SDS011;24727;51.974;20.868;2023-08-30T04:45:03;77.22;;;33.72;;
38937;SDS011;24727;51.974;20.868;2023-08-30T04:47:30;69.00;;;32.47;;
38937;SDS011;24727;51.974;20.868;2023-08-30T04:49:57;74.82;;;33.65;;
38937;SDS011;24727;51.974;20.868;2023-08-30T04:52:23;70.53;;;32.60;;
38937;SDS011;24727;51.974;20.868;2023-08-30T04:54:49;70.25;;;31.48;;
38937;SDS011;24727;51.974;20.868;2023-08-30T04:57:16;77.07;;;34.88;;
38937;SDS011;24727;51.974;20.868;2023-08-30T04:59:43;71.32;;;32.05;;
38937;SDS011;24727;51.974;20.868;2023-08-30T05:02:11;66.22;;;30.48;;
38937;SDS011;24727;51.974;20.868;2023-08-30T05:04:37;61.97;;;30.20;;
38937;SDS011;24727;51.974;20.868;2023-08-30T05:07:03;64.60;;;31.02;;
38937;SDS011;24727;51.974;20.868;2023-08-30T05:09:30;64.70;;;31.58;;
38937;SDS011;24727;51.974;20.868;2023-08-30T05:12:04;61.95;;;30.35;;
38937;SDS011;24727;51.974;20.868;2023-08-30T05:14:31;61.30;;;29.23;;
38937;SDS011;24727;51.974;20.868;2023-08-30T05:16:57;54.25;;;27.58;;
38937;SDS011;24727;51.974;20.868;2023-08-30T05:19:23;53.40;;;26.60;;
38937;SDS011;24727;51.974;20.868;2023-08-30T05:21:49;56.42;;;28.23;;
38937;SDS011;24727;51.974;20.868;2023-08-30T05:24:20;43.67;;;22.80;;
38937;SDS011;24727;51.974;20.868;2023-08-30T05:26:47;44.92;;;23.17;;
38937;SDS011;24727;51.974;20.868;2023-08-30T05:29:14;41.47;;;20.40;;
38937;SDS011;24727;51.974;20.868;2023-08-30T05:31:41;41.38;;;22.05;;
38937;SDS011;24727;51.974;20.868;2023-08-30T05:34:08;34.22;;;18.95;;
38937;SDS011;24727;51.974;20.868;2023-08-30T05:36:35;27.90;;;16.88;;
38937;SDS011;24727;51.974;20.868;2023-08-30T05:39:01;31.35;;;20.42;;
38937;SDS011;24727;51.974;20.868;2023-08-30T05:41:29;37.70;;;21.75;;
38937;SDS011;24727;51.974;20.868;2023-08-30T05:43:55;28.02;;;17.58;;
38937;SDS011;24727;51.974;20.868;2023-08-30T05:46:22;30.40;;;19.77;;
38937;SDS011;24727;51.974;20.868;2023-08-30T05:48:49;26.35;;;18.20;;
38937;SDS011;24727;51.974;20.868;2023-08-30T05:51:14;33.75;;;20.38;;
38937;SDS011;24727;51.974;20.868;2023-08-30T05:53:41;34.88;;;19.90;;
38937;SDS011;24727;51.974;20.868;2023-08-30T05:56:07;36.25;;;20.90;;
38937;SDS011;24727;51.974;20.868;2023-08-30T05:58:33;23.63;;;16.63;;
38937;SDS011;24727;51.974;20.868;2023-08-30T06:01:00;30.50;;;19.90;;
38937;SDS011;24727;51.974;20.868;2023-08-30T06:03:28;33.55;;;20.65;;
38937;SDS011;24727;51.974;20.868;2023-08-30T06:05:55;29.88;;;20.15;;
38937;SDS011;24727;51.974;20.868;2023-08-30T06:08:21;30.70;;;19.17;;
38937;SDS011;24727;51.974;20.868;2023-08-30T06:10:47;32.38;;;20.80;;
38937;SDS011;24727;51.974;20.868;2023-08-30T06:13:14;28.50;;;18.10;;
38937;SDS011;24727;51.974;20.868;2023-08-30T06:15:40;32.45;;;20.42;;
38937;SDS011;24727;51.974;20.868;2023-08-30T06:18:07;33.28;;;20.45;;
38937;SDS011;24727;51.974;20.868;2023-08-30T06:20:33;35.00;;;21.17;;
38937;SDS011;24727;51.974;20.868;2023-08-30T06:22:59;31.98;;;20.92;;
38937;SDS011;24727;51.974;20.868;2023-08-30T06:25:27;25.05;;;16.35;;
38937;SDS011;24727;51.974;20.868;2023-08-30T06:27:57;26.30;;;17.00;;
38937;SDS011;24727;51.974;20.868;2023-08-30T06:30:28;25.17;;;17.27;;
38937;SDS011;24727;51.974;20.868;2023-08-30T06:32:55;29.33;;;19.63;;
38937;SDS011;24727;51.974;20.868;2023-08-30T06:35:22;32.70;;;17.92;;
38937;SDS011;24727;51.974;20.868;2023-08-30T06:37:48;27.58;;;18.10;;
38937;SDS011;24727;51.974;20.868;2023-08-30T06:40:14;17.30;;;12.55;;
38937;SDS011;24727;51.974;20.868;2023-08-30T06:42:40;24.40;;;16.70;;
38937;SDS011;24727;51.974;20.868;2023-08-30T06:45:06;20.45;;;14.50;;
38937;SDS011;24727;51.974;20.868;2023-08-30T06:47:33;20.70;;;14.45;;
38937;SDS011;24727;51.974;20.868;2023-08-30T06:50:00;14.90;;;11.60;;
38937;SDS011;24727;51.974;20.868;2023-08-30T06:52:26;18.15;;;14.00;;
38937;SDS011;24727;51.974;20.868;2023-08-30T06:54:52;15.30;;;11.45;;
38937;SDS011;24727;51.974;20.868;2023-08-30T06:57:19;15.05;;;11.85;;
38937;SDS011;24727;51.974;20.868;2023-08-30T06:59:47;20.75;;;15.57;;
38937;SDS011;24727;51.974;20.868;2023-08-30T07:02:13;24.55;;;16.40;;
38937;SDS011;24727;51.974;20.868;2023-08-30T07:04:40;17.48;;;13.50;;
38937;SDS011;24727;51.974;20.868;2023-08-30T07:07:06;23.90;;;16.20;;
38937;SDS011;24727;51.974;20.868;2023-08-30T07:09:32;13.70;;;10.40;;
38937;SDS011;24727;51.974;20.868;2023-08-30T07:11:58;22.23;;;14.07;;
38937;SDS011;24727;51.974;20.868;2023-08-30T07:14:24;21.50;;;14.52;;
38937;SDS011;24727;51.974;20.868;2023-08-30T07:16:51;26.75;;;18.08;;
38937;SDS011;24727;51.974;20.868;2023-08-30T07:19:17;28.38;;;18.55;;
38937;SDS011;24727;51.974;20.868;2023-08-30T07:21:43;29.75;;;18.48;;
38937;SDS011;24727;51.974;20.868;2023-08-30T07:24:09;27.63;;;17.27;;
38937;SDS011;24727;51.974;20.868;2023-08-30T07:26:36;28.50;;;18.02;;
38937;SDS011;24727;51.974;20.868;2023-08-30T07:29:03;35.47;;;18.60;;
38937;SDS011;24727;51.974;20.868;2023-08-30T07:31:32;26.63;;;15.15;;
38937;SDS011;24727;51.974;20.868;2023-08-30T07:33:59;18.80;;;12.57;;
38937;SDS011;24727;51.974;20.868;2023-08-30T07:36:26;22.40;;;15.98;;
38937;SDS011;24727;51.974;20.868;2023-08-30T07:38:53;26.38;;;17.40;;
38937;SDS011;24727;51.974;20.868;2023-08-30T07:41:19;23.45;;;16.23;;
38937;SDS011;24727;51.974;20.868;2023-08-30T07:43:45;25.27;;;16.08;;
38937;SDS011;24727;51.974;20.868;2023-08-30T07:46:11;25.08;;;17.27;;
38937;SDS011;24727;51.974;20.868;2023-08-30T07:48:43;20.17;;;14.77;;
38937;SDS011;24727;51.974;20.868;2023-08-30T07:51:09;17.10;;;13.35;;
38937;SDS011;24727;51.974;20.868;2023-08-30T07:53:35;18.17;;;13.38;;
38937;SDS011;24727;51.974;20.868;2023-08-30T07:56:02;19.80;;;14.63;;
38937;SDS011;24727;51.974;20.868;2023-08-30T07:58:29;19.05;;;14.25;;
38937;SDS011;24727;51.974;20.868;2023-08-30T08:01:01;20.88;;;13.98;;
38937;SDS011;24727;51.974;20.868;2023-08-30T08:03:28;20.02;;;12.98;;
38937;SDS011;24727;51.974;20.868;2023-08-30T08:05:54;17.08;;;13.82;;
38937;SDS011;24727;51.974;20.868;2023-08-30T08:08:20;15.43;;;11.98;;
38937;SDS011;24727;51.974;20.868;2023-08-30T08:10:46;17.13;;;13.00;;
38937;SDS011;24727;51.974;20.868;2023-08-30T08:13:13;21.40;;;14.27;;
38937;SDS011;24727;51.974;20.868;2023-08-30T08:15:40;17.70;;;13.57;;
38937;SDS011;24727;51.974;20.868;2023-08-30T08:18:06;20.10;;;13.32;;
38937;SDS011;24727;51.974;20.868;2023-08-30T08:20:33;19.13;;;13.13;;
38937;SDS011;24727;51.974;20.868;2023-08-30T08:22:59;15.82;;;11.82;;
38937;SDS011;24727;51.974;20.868;2023-08-30T08:25:25;15.52;;;10.43;;
38937;SDS011;24727;51.974;20.868;2023-08-30T08:27:51;16.67;;;9.57;;
38937;SDS011;24727;51.974;20.868;2023-08-30T08:30:23;19.73;;;10.43;;
38937;SDS011;24727;51.974;20.868;2023-08-30T08:32:50;15.45;;;9.82;;
38937;SDS011;24727;51.974;20.868;2023-08-30T08:35:18;14.93;;;10.27;;
38937;SDS011;24727;51.974;20.868;2023-08-30T08:37:44;13.98;;;10.15;;
38937;SDS011;24727;51.974;20.868;2023-08-30T08:40:10;13.90;;;8.80;;
38937;SDS011;24727;51.974;20.868;2023-08-30T08:42:37;12.88;;;9.07;;
38937;SDS011;24727;51.974;20.868;2023-08-30T08:45:03;12.02;;;8.32;;
38937;SDS011;24727;51.974;20.868;2023-08-30T08:47:30;11.43;;;8.68;;
38937;SDS011;24727;51.974;20.868;2023-08-30T08:49:57;12.05;;;8.75;;
38937;SDS011;24727;51.974;20.868;2023-08-30T08:52:24;12.15;;;7.97;;
38937;SDS011;24727;51.974;20.868;2023-08-30T08:54:51;14.75;;;8.60;;
38937;SDS011;24727;51.974;20.868;2023-08-30T08:57:18;12.73;;;8.75;;
38937;SDS011;24727;51.974;20.868;2023-08-30T08:59:45;14.52;;;9.80;;
38937;SDS011;24727;51.974;20.868;2023-08-30T09:02:14;16.95;;;10.38;;
38937;SDS011;24727;51.974;20.868;2023-08-30T09:04:40;15.77;;;9.85;;
38937;SDS011;24727;51.974;20.868;2023-08-30T09:07:06;11.13;;;8.23;;
38937;SDS011;24727;51.974;20.868;2023-08-30T09:09:34;12.00;;;8.52;;
38937;SDS011;24727;51.974;20.868;2023-08-30T09:12:01;11.60;;;8.02;;
38937;SDS011;24727;51.974;20.868;2023-08-30T09:14:28;15.18;;;8.43;;
38937;SDS011;24727;51.974;20.868;2023-08-30T09:16:58;14.00;;;7.93;;
38937;SDS011;24727;51.974;20.868;2023-08-30T09:19:33;16.25;;;8.93;;
38937;SDS011;24727;51.974;20.868;2023-08-30T09:22:00;15.13;;;8.13;;
38937;SDS011;24727;51.974;20.868;2023-08-30T09:24:37;11.82;;;7.95;;
38937;SDS011;24727;51.974;20.868;2023-08-30T09:27:06;13.07;;;7.93;;
38937;SDS011;24727;51.974;20.868;2023-08-30T09:29:32;12.00;;;6.90;;
38937;SDS011;24727;51.974;20.868;2023-08-30T09:31:58;10.63;;;6.78;;
38937;SDS011;24727;51.974;20.868;2023-08-30T09:34:32;11.85;;;7.15;;
38937;SDS011;24727;51.974;20.868;2023-08-30T09:36:58;20.00;;;7.45;;
38937;SDS011;24727;51.974;20.868;2023-08-30T09:39:27;11.93;;;7.13;;
38937;SDS011;24727;51.974;20.868;2023-08-30T09:41:53;11.00;;;6.65;;
38937;SDS011;24727;51.974;20.868;2023-08-30T09:44:20;11.77;;;6.55;;
38937;SDS011;24727;51.974;20.868;2023-08-30T09:46:49;12.18;;;7.00;;
38937;SDS011;24727;51.974;20.868;2023-08-30T09:49:20;13.77;;;6.97;;
38937;SDS011;24727;51.974;20.868;2023-08-30T09:51:48;10.35;;;6.32;;
38937;SDS011;24727;51.974;20.868;2023-08-30T09:54:24;15.70;;;6.90;;
38937;SDS011;24727;51.974;20.868;2023-08-30T09:56:50;11.07;;;6.10;;
38937;SDS011;24727;51.974;20.868;2023-08-30T09:59:21;9.63;;;6.00;;
38937;SDS011;24727;51.974;20.868;2023-08-30T10:01:48;9.73;;;5.97;;
38937;SDS011;24727;51.974;20.868;2023-08-30T10:04:18;13.43;;;6.63;;
38937;SDS011;24727;51.974;20.868;2023-08-30T10:06:45;9.60;;;5.35;;
38937;SDS011;24727;51.974;20.868;2023-08-30T10:09:13;11.77;;;4.90;;
38937;SDS011;24727;51.974;20.868;2023-08-30T10:11:40;9.82;;;4.93;;
38937;SDS011;24727;51.974;20.868;2023-08-30T10:14:06;7.10;;;4.70;;
38937;SDS011;24727;51.974;20.868;2023-08-30T10:16:46;4.97;;;4.47;;
38937;SDS011;24727;51.974;20.868;2023-08-30T10:19:17;7.63;;;4.60;;
38937;SDS011;24727;51.974;20.868;2023-08-30T10:21:58;5.97;;;4.35;;
38937;SDS011;24727;51.974;20.868;2023-08-30T10:24:35;6.65;;;3.88;;
38937;SDS011;24727;51.974;20.868;2023-08-30T10:27:08;7.80;;;4.30;;
38937;SDS011;24727;51.974;20.868;2023-08-30T10:29:36;4.40;;;3.42;;
38937;SDS011;24727;51.974;20.868;2023-08-30T10:32:05;4.93;;;3.58;;
38937;SDS011;24727;51.974;20.868;2023-08-30T10:34:32;4.38;;;2.92;;
38937;SDS011;24727;51.974;20.868;2023-08-30T10:37:00;7.07;;;3.22;;
38937;SDS011;24727;51.974;20.868;2023-08-30T10:39:39;2.65;;;2.42;;
38937;SDS011;24727;51.974;20.868;2023-08-30T10:42:10;2.72;;;2.15;;
38937;SDS011;24727;51.974;20.868;2023-08-30T10:47:36;2.92;;;2.60;;
38937;SDS011;24727;51.974;20.868;2023-08-30T10:50:07;4.60;;;2.60;;
38937;SDS011;24727;51.974;20.868;2023-08-30T10:55:07;5.50;;;3.58;;
38937;SDS011;24727;51.974;20.868;2023-08-30T10:57:36;6.35;;;3.42;;
38937;SDS011;24727;51.974;20.868;2023-08-30T11:00:04;5.63;;;3.90;;
38937;SDS011;24727;51.974;20.868;2023-08-30T11:02:44;4.80;;;3.85;;
38937;SDS011;24727;51.974;20.868;2023-08-30T11:05:11;5.15;;;4.13;;
38937;SDS011;24727;51.974;20.868;2023-08-30T11:07:38;7.28;;;4.43;;
38937;SDS011;24727;51.974;20.868;2023-08-30T11:10:06;3.72;;;3.20;;
38937;SDS011;24727;51.974;20.868;2023-08-30T11:12:33;7.15;;;4.55;;
38937;SDS011;24727;51.974;20.868;2023-08-30T11:15:01;5.03;;;4.00;;
38937;SDS011;24727;51.974;20.868;2023-08-30T11:17:28;4.50;;;3.72;;
38937;SDS011;24727;51.974;20.868;2023-08-30T11:20:04;5.00;;;4.45;;
38937;SDS011;24727;51.974;20.868;2023-08-30T11:22:47;3.47;;;3.15;;
38937;SDS011;24727;51.974;20.868;2023-08-30T11:25:14;5.15;;;3.65;;
38937;SDS011;24727;51.974;20.868;2023-08-30T11:27:41;8.63;;;4.45;;
38937;SDS011;24727;51.974;20.868;2023-08-30T11:30:08;6.60;;;4.65;;
38937;SDS011;24727;51.974;20.868;2023-08-30T11:32:35;6.40;;;4.78;;
38937;SDS011;24727;51.974;20.868;2023-08-30T11:35:03;8.63;;;5.22;;
38937;SDS011;24727;51.974;20.868;2023-08-30T11:37:29;6.53;;;5.20;;
38937;SDS011;24727;51.974;20.868;2023-08-30T11:39:55;6.15;;;5.07;;
38937;SDS011;24727;51.974;20.868;2023-08-30T11:42:22;7.55;;;5.32;;
38937;SDS011;24727;51.974;20.868;2023-08-30T11:44:49;5.95;;;4.85;;
38937;SDS011;24727;51.974;20.868;2023-08-30T11:47:19;8.35;;;5.63;;
38937;SDS011;24727;51.974;20.868;2023-08-30T11:49:52;8.88;;;5.28;;
38937;SDS011;24727;51.974;20.868;2023-08-30T11:52:23;11.85;;;5.72;;
38937;SDS011;24727;51.974;20.868;2023-08-30T11:54:52;8.75;;;5.15;;
38937;SDS011;24727;51.974;20.868;2023-08-30T11:57:19;7.18;;;4.95;;
38937;SDS011;24727;51.974;20.868;2023-08-30T11:59:48;10.23;;;4.90;;
38937;SDS011;24727;51.974;20.868;2023-08-30T12:02:16;8.57;;;4.45;;
38937;SDS011;24727;51.974;20.868;2023-08-30T12:04:50;7.95;;;5.15;;
38937;SDS011;24727;51.974;20.868;2023-08-30T12:07:22;6.70;;;5.32;;
38937;SDS011;24727;51.974;20.868;2023-08-30T12:10:03;6.60;;;4.78;;
38937;SDS011;24727;51.974;20.868;2023-08-30T12:12:34;6.93;;;4.13;;
38937;SDS011;24727;51.974;20.868;2023-08-30T12:15:11;8.35;;;4.18;;
38937;SDS011;24727;51.974;20.868;2023-08-30T12:17:37;7.90;;;3.90;;
38937;SDS011;24727;51.974;20.868;2023-08-30T12:20:04;5.68;;;3.42;;
38937;SDS011;24727;51.974;20.868;2023-08-30T12:22:38;4.30;;;3.75;;
38937;SDS011;24727;51.974;20.868;2023-08-30T12:25:26;4.15;;;3.58;;
38937;SDS011;24727;51.974;20.868;2023-08-30T12:27:54;5.68;;;3.80;;
38937;SDS011;24727;51.974;20.868;2023-08-30T12:30:20;3.97;;;3.60;;
38937;SDS011;24727;51.974;20.868;2023-08-30T12:32:46;7.00;;;4.40;;
38937;SDS011;24727;51.974;20.868;2023-08-30T12:35:14;5.72;;;4.55;;
38937;SDS011;24727;51.974;20.868;2023-08-30T12:37:42;8.07;;;5.60;;
38937;SDS011;24727;51.974;20.868;2023-08-30T12:40:08;7.47;;;5.70;;
38937;SDS011;24727;51.974;20.868;2023-08-30T12:42:35;7.50;;;5.70;;
38937;SDS011;24727;51.974;20.868;2023-08-30T12:45:01;9.10;;;5.80;;
38937;SDS011;24727;51.974;20.868;2023-08-30T12:47:28;8.50;;;5.65;;
38937;SDS011;24727;51.974;20.868;2023-08-30T12:49:55;7.60;;;5.28;;
38937;SDS011;24727;51.974;20.868;2023-08-30T12:52:23;9.00;;;5.95;;
38937;SDS011;24727;51.974;20.868;2023-08-30T12:54:49;9.18;;;6.22;;
38937;SDS011;24727;51.974;20.868;2023-08-30T12:57:17;7.07;;;5.20;;
38937;SDS011;24727;51.974;20.868;2023-08-30T12:59:44;11.07;;;5.68;;
38937;SDS011;24727;51.974;20.868;2023-08-30T13:02:10;6.70;;;4.88;;
38937;SDS011;24727;51.974;20.868;2023-08-30T13:04:36;7.32;;;5.40;;
38937;SDS011;24727;51.974;20.868;2023-08-30T13:07:04;9.43;;;6.53;;
38937;SDS011;24727;51.974;20.868;2023-08-30T13:09:30;11.68;;;6.40;;
38937;SDS011;24727;51.974;20.868;2023-08-30T13:11:57;8.00;;;5.80;;
38937;SDS011;24727;51.974;20.868;2023-08-30T13:14:23;11.45;;;7.13;;
38937;SDS011;24727;51.974;20.868;2023-08-30T13:16:49;8.57;;;6.20;;
38937;SDS011;24727;51.974;20.868;2023-08-30T13:19:16;7.75;;;5.82;;
38937;SDS011;24727;51.974;20.868;2023-08-30T13:21:42;7.95;;;5.90;;
38937;SDS011;24727;51.974;20.868;2023-08-30T13:24:09;10.07;;;5.90;;
38937;SDS011;24727;51.974;20.868;2023-08-30T13:26:35;7.45;;;4.68;;
38937;SDS011;24727;51.974;20.868;2023-08-30T13:29:01;6.93;;;4.43;;
38937;SDS011;24727;51.974;20.868;2023-08-30T13:31:28;5.30;;;4.10;;
38937;SDS011;24727;51.974;20.868;2023-08-30T13:33:55;6.38;;;4.18;;
38937;SDS011;24727;51.974;20.868;2023-08-30T13:36:22;5.95;;;4.20;;
38937;SDS011;24727;51.974;20.868;2023-08-30T13:38:48;4.93;;;3.80;;
38937;SDS011;24727;51.974;20.868;2023-08-30T13:41:14;6.13;;;4.20;;
38937;SDS011;24727;51.974;20.868;2023-08-30T13:43:40;14.95;;;4.38;;
38937;SDS011;24727;51.974;20.868;2023-08-30T13:46:07;5.00;;;3.30;;
38937;SDS011;24727;51.974;20.868;2023-08-30T13:48:33;4.63;;;3.08;;
38937;SDS011;24727;51.974;20.868;2023-08-30T13:51:00;3.90;;;3.15;;
38937;SDS011;24727;51.974;20.868;2023-08-30T13:53:26;4.75;;;3.35;;
38937;SDS011;24727;51.974;20.868;2023-08-30T13:55:53;8.40;;;3.47;;
38937;SDS011;24727;51.974;20.868;2023-08-30T13:58:19;4.38;;;2.67;;
38937;SDS011;24727;51.974;20.868;2023-08-30T14:00:46;4.45;;;3.30;;
38937;SDS011;24727;51.974;20.868;2023-08-30T14:03:12;3.63;;;2.92;;
38937;SDS011;24727;51.974;20.868;2023-08-30T14:05:40;4.03;;;3.17;;
38937;SDS011;24727;51.974;20.868;2023-08-30T14:08:06;4.22;;;3.10;;
38937;SDS011;24727;51.974;20.868;2023-08-30T14:10:34;5.70;;;4.15;;
38937;SDS011;24727;51.974;20.868;2023-08-30T14:13:00;7.13;;;3.95;;
38937;SDS011;24727;51.974;20.868;2023-08-30T14:15:26;5.15;;;4.15;;
38937;SDS011;24727;51.974;20.868;2023-08-30T14:17:53;4.97;;;4.07;;
38937;SDS011;24727;51.974;20.868;2023-08-30T14:20:21;5.15;;;4.20;;
38937;SDS011;24727;51.974;20.868;2023-08-30T14:22:48;4.43;;;3.97;;
38937;SDS011;24727;51.974;20.868;2023-08-30T14:25:14;4.93;;;3.10;;
38937;SDS011;24727;51.974;20.868;2023-08-30T14:27:40;3.75;;;3.38;;
38937;SDS011;24727;51.974;20.868;2023-08-30T14:30:06;5.18;;;4.13;;
38937;SDS011;24727;51.974;20.868;2023-08-30T14:32:33;4.90;;;4.10;;
38937;SDS011;24727;51.974;20.868;2023-08-30T14:34:59;4.10;;;3.40;;